Maple Park, Illinois
Current Conditions -  °F | °C
As of 9:55 PM on Tuesday 25 Nov 2014 (Local Time) from KDKB Reporting Station
Haze Haze  
Wind Chill:   Ceiling: Unl
Heat Index: 11°   Visibility: 5mi
Dew Point:   Wind: 6mph
Humidity: 91%   Direction: 160°SSE
Pressure: 30.17"   Gusts: NA
Location:  41.91°N, 88.6°W
Report Text: KDKB 260355Z AUTO 16005KT 5SM BR CLR M11/M13 A3017 RMK AO2 T11151127
Loading
Personal Weather Stations






























Interactive Weather Map New forecast layout! Learn more

10-Day Weather Forecast

Advertisements
Track Severe Weather on mobile